Time;durP1;ratioP1;P1;durP2;ratioP2;P2;SDS_P1;SDS_P2;PMS_P1;PMS_P2;Temp;Humidity;BMP_temperature;BMP_pressure;BME280_temperature;BME280_humidity;BME280_pressure;Samples;Min_cycle;Max_cycle;Signal;HPM_P1;HPM_P2
2022/06/02 00:00:13;;;;;;;13.43;6.75;;;;;;;15.58;75.61;99842.91;4898350;29;20058;-66
2022/06/02 00:03:08;;;;;;;11.07;7.20;;;;;;;15.57;76.40;99855.53;4879810;28;20099;-66
2022/06/02 00:05:50;;;;;;;10.70;6.82;;;;;;;15.56;76.80;99852.97;4892122;29;20598;-69
2022/06/02 00:08:17;;;;;;;9.73;7.28;;;;;;;15.49;76.41;99852.63;4891081;29;20459;-66
2022/06/02 00:11:03;;;;;;;10.73;5.82;;;;;;;15.58;76.06;99851.84;4880413;29;20068;-67
2022/06/02 00:13:54;;;;;;;10.80;5.93;;;;;;;15.66;75.36;99853.00;4898117;29;20490;-67
2022/06/02 00:16:31;;;;;;;9.68;5.97;;;;;;;15.59;75.44;99853.53;4870345;29;20391;-67
2022/06/02 00:19:05;;;;;;;10.10;5.82;;;;;;;15.56;75.55;99843.09;4907384;29;20095;-69
2022/06/02 00:21:35;;;;;;;13.37;6.70;;;;;;;15.57;75.37;99844.78;4868926;29;20413;-64
2022/06/02 00:24:18;;;;;;;10.68;5.95;;;;;;;15.53;75.74;99853.22;4915474;28;20054;-65
2022/06/02 00:26:59;;;;;;;12.15;6.30;;;;;;;15.64;75.03;99855.81;4921066;28;20577;-70
2022/06/02 00:29:38;;;;;;;10.00;6.47;;;;;;;15.65;74.10;99860.22;4922610;28;20056;-65
2022/06/02 00:32:14;;;;;;;11.90;5.95;;;;;;;15.60;74.41;99855.25;4927274;28;20043;-71
2022/06/02 00:34:58;;;;;;;9.77;5.95;;;;;;;15.54;74.84;99847.75;4928922;28;20393;-71
2022/06/02 00:38:00;;;;;;;9.63;6.03;;;;;;;15.53;74.56;99846.00;4923187;28;20039;-69
2022/06/02 00:40:27;;;;;;;13.02;6.55;;;;;;;15.46;74.67;99842.13;4893340;28;20528;-72
2022/06/02 00:43:10;;;;;;;9.07;6.25;;;;;;;15.38;75.30;99833.91;4926526;28;20042;-65
2022/06/02 00:45:40;;;;;;;8.73;6.25;;;;;;;15.40;75.49;99831.09;4922982;28;20043;-66
2022/06/02 00:48:06;;;;;;;9.85;6.65;;;;;;;15.37;75.28;99824.16;4922538;28;20043;-66
2022/06/02 00:50:49;;;;;;;13.95;7.05;;;;;;;15.35;75.83;99833.34;4926337;28;20047;-65
2022/06/02 00:53:35;;;;;;;10.40;6.45;;;;;;;15.30;75.89;99836.44;4922089;28;20110;-65
2022/06/02 00:59:23;;;;;;;10.83;6.50;;;;;;;15.34;75.36;99834.34;4923764;28;20473;-66
2022/06/02 01:01:48;;;;;;;8.65;6.30;;;;;;;15.23;75.66;99841.50;4926285;28;20039;-71
2022/06/02 01:04:16;;;;;;;12.90;6.72;;;;;;;15.28;75.61;99843.78;4924798;28;20081;-70
2022/06/02 01:07:03;;;;;;;10.63;7.22;;;;;;;15.29;75.65;99844.63;4923504;28;20121;-69
2022/06/02 01:09:45;;;;;;;9.55;6.70;;;;;;;15.24;76.06;99845.00;4900614;29;20469;-68
2022/06/02 01:12:25;;;;;;;12.48;7.45;;;;;;;15.22;76.13;99837.13;4917760;28;20054;-69
2022/06/02 01:14:52;;;;;;;11.40;6.57;;;;;;;15.17;76.31;99847.41;4917054;28;20047;-65
2022/06/02 01:17:54;;;;;;;10.15;6.80;;;;;;;15.20;76.35;99846.28;4898943;29;20051;-71
2022/06/02 01:21:00;;;;;;;11.95;7.22;;;;;;;15.27;75.59;99840.22;4897611;29;20114;-71
2022/06/02 01:24:03;;;;;;;11.38;7.60;;;;;;;15.25;75.60;99850.25;4923906;28;20031;-73
2022/06/02 01:26:43;;;;;;;13.45;7.75;;;;;;;15.22;75.86;99841.63;4887422;29;20137;-70
2022/06/02 01:30:04;;;;;;;12.20;8.60;;;;;;;15.32;75.57;99839.84;4910567;29;20098;-73
2022/06/02 01:32:51;;;;;;;11.95;7.13;;;;;;;15.31;75.78;99834.59;4902623;29;20059;-71
2022/06/02 01:35:39;;;;;;;9.60;6.80;;;;;;;15.34;75.94;99839.72;4904640;29;20147;-75
2022/06/02 01:38:30;;;;;;;13.27;8.00;;;;;;;15.32;76.47;99834.47;4881092;29;20048;-72
2022/06/02 01:40:58;;;;;;;10.48;7.28;;;;;;;15.46;75.65;99842.13;4824144;29;20599;-67
2022/06/02 01:43:35;;;;;;;15.48;8.30;;;;;;;15.68;75.05;99842.97;4823878;29;20192;-70
2022/06/02 01:46:42;;;;;;;13.38;7.85;;;;;;;15.81;75.04;99841.72;4839658;29;20595;-66
2022/06/02 01:49:18;;;;;;;16.00;7.45;;;;;;;15.91;73.91;99844.44;4838860;29;20523;-76
2022/06/02 01:52:16;;;;;;;15.25;8.30;;;;;;;16.05;73.49;99830.56;4841137;29;20057;-71
2022/06/02 01:54:45;;;;;;;14.02;8.20;;;;;;;16.04;73.40;99836.94;4838868;29;20056;-74
2022/06/02 01:57:19;;;;;;;12.15;7.47;;;;;;;16.01;73.40;99828.31;4825258;29;20610;-72
2022/06/02 02:00:11;;;;;;;12.82;7.85;;;;;;;16.10;73.18;99825.66;4842495;29;20540;-71
2022/06/02 02:02:50;;;;;;;14.02;7.55;;;;;;;16.05;72.93;99833.25;4840823;29;20051;-67
2022/06/02 02:05:21;;;;;;;13.43;7.32;;;;;;;16.01;73.09;99831.00;4823523;29;20099;-69
2022/06/02 02:07:49;;;;;;;12.00;7.55;;;;;;;16.05;73.25;99829.72;4839595;29;20081;-69
2022/06/02 02:10:30;;;;;;;14.02;7.40;;;;;;;16.07;72.94;99825.06;4839373;29;20087;-70
2022/06/02 02:13:00;;;;;;;12.50;7.63;;;;;;;16.05;72.96;99818.97;4839650;29;20044;-68
2022/06/02 02:15:31;;;;;;;14.07;7.90;;;;;;;16.05;72.61;99824.34;4849573;29;20108;-68
2022/06/02 02:18:14;;;;;;;13.23;6.68;;;;;;;16.14;72.41;99827.03;4894709;29;20459;-71
2022/06/02 02:20:56;;;;;;;8.15;5.75;;;;;;;16.20;72.34;99825.66;4905691;29;20057;-70
2022/06/02 02:23:44;;;;;;;10.27;6.40;;;;;;;16.13;71.98;99824.53;4932726;28;20039;-73
2022/06/02 02:26:18;;;;;;;8.30;5.32;;;;;;;16.07;72.17;99833.97;4936529;28;20043;-70
2022/06/02 02:29:04;;;;;;;11.10;5.80;;;;;;;16.09;71.41;99820.41;4917034;28;20493;-70
2022/06/02 02:31:55;;;;;;;9.85;6.22;;;;;;;16.19;71.04;99819.41;4923177;28;20569;-71
2022/06/02 02:34:52;;;;;;;9.40;5.90;;;;;;;16.15;71.50;99812.59;4939797;28;20392;-76
2022/06/02 02:37:27;;;;;;;18.77;5.57;;;;;;;16.05;71.26;99813.59;4943976;28;20074;-75
2022/06/02 02:40:05;;;;;;;12.23;5.93;;;;;;;16.08;71.36;99810.63;4929311;28;20069;-75
2022/06/02 02:42:47;;;;;;;8.07;5.72;;;;;;;16.07;71.61;99811.63;4930358;28;20406;-76
2022/06/02 02:45:43;;;;;;;8.35;5.68;;;;;;;16.20;71.26;99810.34;4942882;28;20387;-74
2022/06/02 02:48:23;;;;;;;8.75;5.03;;;;;;;16.26;70.82;99806.22;4926330;28;20494;-75
2022/06/02 02:51:21;;;;;;;10.63;6.25;;;;;;;16.39;70.34;99795.19;4926136;28;20469;-76
2022/06/02 02:53:59;;;;;;;9.05;5.70;;;;;;;16.37;70.43;99789.09;4889832;29;20043;-76
2022/06/02 02:56:40;;;;;;;7.15;4.88;;;;;;;16.33;70.46;99784.03;4916908;29;20046;-75
2022/06/02 02:59:38;;;;;;;7.40;4.70;;;;;;;16.47;70.83;99795.34;4893060;29;20066;-74
2022/06/02 03:02:35;;;;;;;6.40;5.32;;;;;;;16.67;70.12;99783.59;4867097;29;20047;-75
2022/06/02 03:05:14;;;;;;;12.57;5.22;;;;;;;16.80;69.58;99785.97;4898064;29;20580;-75
2022/06/02 03:07:39;;;;;;;7.45;4.95;;;;;;;16.86;68.81;99779.97;4867002;29;20046;-74
2022/06/02 03:10:31;;;;;;;13.88;4.80;;;;;;;17.00;68.70;99793.84;4882392;29;20059;-74
2022/06/02 03:13:02;;;;;;;8.80;5.15;;;;;;;17.13;68.38;99792.66;4881719;29;20584;-70
2022/06/02 03:15:49;;;;;;;18.58;5.88;;;;;;;17.27;67.95;99792.16;4866429;29;20043;-70
2022/06/02 03:18:29;;;;;;;5.68;4.65;;;;;;;17.39;67.52;99793.66;4897892;29;20446;-69
2022/06/02 03:21:04;;;;;;;7.82;4.72;;;;;;;17.47;67.28;99784.84;4866325;29;20051;-70
2022/06/02 03:23:47;;;;;;;9.20;4.30;;;;;;;17.54;66.85;99788.63;4881478;29;20043;-69
2022/06/02 03:26:25;;;;;;;8.38;4.88;;;;;;;17.72;66.23;99787.69;4882147;29;20055;-69
2022/06/02 03:28:58;;;;;;;4.88;4.18;;;;;;;17.69;65.31;99785.31;4880413;29;20110;-69
2022/06/02 03:31:41;;;;;;;8.13;4.30;;;;;;;17.83;65.83;99796.59;4910089;29;20527;-70
2022/06/02 03:34:46;;;;;;;10.00;4.70;;;;;;;17.86;65.18;99799.81;4918646;29;20083;-71
2022/06/02 03:37:20;;;;;;;10.23;4.53;;;;;;;17.82;65.04;99809.22;4912871;29;20414;-69
2022/06/02 03:40:23;;;;;;;8.82;5.22;;;;;;;18.02;64.29;99804.53;4918029;28;20519;-69
2022/06/02 03:42:57;;;;;;;9.85;4.97;;;;;;;17.90;64.71;99801.22;4917048;29;20051;-70
2022/06/02 03:45:49;;;;;;;7.80;5.30;;;;;;;17.96;64.74;99803.28;4917884;28;20066;-70
2022/06/02 03:48:43;;;;;;;8.57;5.18;;;;;;;18.12;64.79;99813.41;4917741;29;20405;-71
2022/06/02 03:51:20;;;;;;;7.82;5.05;;;;;;;18.13;64.24;99810.56;4917843;29;20121;-75
2022/06/02 03:54:12;;;;;;;7.82;5.50;;;;;;;18.08;65.01;99817.41;4917869;29;20039;-78
2022/06/02 03:56:55;;;;;;;9.75;4.68;;;;;;;18.20;64.59;99813.47;4924115;29;20336;-71
2022/06/02 03:59:54;;;;;;;9.38;5.28;;;;;;;18.47;62.90;99816.09;4927288;28;20063;-69
2022/06/02 04:02:39;;;;;;;6.63;4.45;;;;;;;18.48;62.70;99811.56;4907223;29;20047;-70
2022/06/02 04:05:19;;;;;;;6.82;4.72;;;;;;;18.50;62.50;99814.94;4939050;28;20568;-70
2022/06/02 04:07:50;;;;;;;7.10;4.85;;;;;;;18.53;62.44;99811.91;4922674;28;20051;-69
2022/06/02 04:10:56;;;;;;;6.18;4.32;;;;;;;18.70;62.06;99821.88;4904212;29;20050;-68
2022/06/02 04:13:52;;;;;;;9.82;5.03;;;;;;;18.99;61.78;99826.13;4880294;29;20099;-67
2022/06/02 04:16:40;;;;;;;9.38;4.50;;;;;;;18.99;61.62;99824.28;4865162;29;20438;-68
2022/06/02 04:23:02;;;;;;;8.85;5.20;;;;;;;19.31;61.00;99818.22;4863120;29;20044;-68
2022/06/02 04:25:44;;;;;;;13.90;5.70;;;;;;;19.39;60.67;99818.28;4863198;29;20360;-69
2022/06/02 04:28:38;;;;;;;8.50;4.60;;;;;;;19.26;60.84;99819.72;4863435;29;20119;-68
2022/06/02 04:31:14;;;;;;;8.73;4.90;;;;;;;19.56;60.27;99808.38;4878295;29;20142;-68
2022/06/02 04:34:13;;;;;;;7.60;5.03;;;;;;;19.70;59.73;99815.03;4862613;29;20118;-69
2022/06/02 04:36:56;;;;;;;8.40;4.50;;;;;;;19.59;60.06;99810.78;4878057;29;20137;-68
2022/06/02 04:39:27;;;;;;;7.38;4.90;;;;;;;19.91;59.70;99823.56;4877957;29;20048;-69
2022/06/02 04:42:01;;;;;;;13.43;5.57;;;;;;;20.18;59.09;99833.28;4879951;29;20063;-69
2022/06/02 04:44:39;;;;;;;8.45;5.07;;;;;;;20.43;57.44;99829.59;4869414;29;20556;-70
2022/06/02 04:47:07;;;;;;;12.20;5.85;;;;;;;20.77;57.24;99818.59;4901255;29;20114;-68
2022/06/02 04:49:36;;;;;;;7.97;4.95;;;;;;;21.21;56.15;99813.66;4923863;28;20114;-69
2022/06/02 04:52:16;;;;;;;9.02;5.75;;;;;;;21.50;54.79;99829.31;4922649;28;20422;-74
2022/06/02 04:55:15;;;;;;;8.02;5.30;;;;;;;21.64;54.48;99822.31;4926605;28;20062;-73
2022/06/02 04:57:56;;;;;;;9.10;5.32;;;;;;;21.73;54.55;99816.69;4924114;28;20175;-68
2022/06/02 05:00:37;;;;;;;9.43;5.38;;;;;;;21.96;54.08;99814.00;4920676;29;20113;-67
2022/06/02 05:03:07;;;;;;;9.77;5.50;;;;;;;22.27;52.95;99805.88;4922665;28;20042;-72
2022/06/02 05:05:46;;;;;;;12.38;6.15;;;;;;;22.70;51.59;99808.91;4935257;28;20055;-68
2022/06/02 05:08:35;;;;;;;13.48;6.03;;;;;;;22.99;50.48;99802.75;4919720;28;20047;-67
2022/06/02 05:11:38;;;;;;;9.63;5.47;;;;;;;23.25;51.22;99800.41;4921926;29;20486;-67
2022/06/02 05:14:24;;;;;;;8.77;4.82;;;;;;;23.55;51.19;99801.28;4920326;29;20453;-68
2022/06/02 05:17:10;;;;;;;9.57;4.78;;;;;;;23.83;49.72;99804.97;4899662;29;20058;-68
2022/06/02 05:19:53;;;;;;;8.48;5.18;;;;;;;24.26;49.01;99798.81;4901179;29;20051;-67
2022/06/02 05:22:40;;;;;;;12.02;5.43;;;;;;;24.57;48.07;99796.59;4918959;28;20058;-68
2022/06/02 05:25:25;;;;;;;7.00;5.53;;;;;;;24.53;47.78;99800.72;4918694;28;20035;-68
2022/06/02 05:28:15;;;;;;;9.32;6.20;;;;;;;24.59;46.52;99799.97;4920519;28;20047;-67
2022/06/02 05:31:29;;;;;;;9.73;5.50;;;;;;;24.36;47.63;99800.16;4919964;29;20035;-68
2022/06/02 05:34:15;;;;;;;12.50;6.25;;;;;;;24.34;46.95;99804.13;4937699;28;20058;-67
2022/06/02 05:36:53;;;;;;;7.35;6.10;;;;;;;24.08;48.25;99807.38;4917524;28;20070;-67
2022/06/02 05:39:37;;;;;;;9.52;5.78;;;;;;;24.34;47.31;99809.56;4917554;29;20487;-68
2022/06/02 05:42:19;;;;;;;8.93;6.30;;;;;;;24.52;48.05;99802.63;4899786;29;20541;-68
2022/06/02 05:44:59;;;;;;;8.05;5.90;;;;;;;24.73;46.83;99795.44;4916020;29;20054;-68
2022/06/02 05:47:57;;;;;;;8.35;5.43;;;;;;;25.02;46.88;99799.91;4900016;29;20043;-68
2022/06/02 05:50:32;;;;;;;8.32;6.43;;;;;;;25.23;45.60;99791.66;4932166;28;20058;-69
2022/06/02 05:53:09;;;;;;;10.23;5.93;;;;;;;25.56;45.34;99792.69;4920928;28;20047;-68
2022/06/02 05:55:39;;;;;;;9.05;6.90;;;;;;;26.21;44.11;99785.78;4920011;28;20147;-70
2022/06/02 05:58:24;;;;;;;13.73;5.85;;;;;;;27.04;42.44;99784.44;4904393;29;20043;-68
2022/06/02 06:01:03;;;;;;;9.52;5.95;;;;;;;27.85;41.04;99784.00;4922043;28;20051;-68
2022/06/02 06:03:34;;;;;;;8.15;5.38;;;;;;;28.50;40.20;99793.75;4921127;28;20042;-68
2022/06/02 06:06:09;;;;;;;8.57;6.10;;;;;;;29.00;39.11;99787.50;4919722;29;20062;-68
2022/06/02 06:08:37;;;;;;;13.50;6.00;;;;;;;29.79;37.32;99790.22;4887894;29;20154;-77
2022/06/02 06:11:20;;;;;;;9.27;6.00;;;;;;;30.16;37.47;99796.50;4919982;29;20051;-76
2022/06/02 06:13:55;;;;;;;9.05;7.20;;;;;;;30.68;35.89;99786.66;4935294;28;20104;-77
2022/06/02 06:16:36;;;;;;;7.95;6.68;;;;;;;31.09;35.46;99793.19;4919108;29;20055;-77
2022/06/02 06:19:41;;;;;;;11.48;6.65;;;;;;;31.76;34.05;99788.09;4919160;29;20054;-76
2022/06/02 06:22:33;;;;;;;8.95;6.25;;;;;;;32.28;32.08;99799.91;4884483;29;20403;-77
2022/06/02 06:25:06;;;;;;;9.52;6.97;;;;;;;32.12;31.75;99789.66;4899207;29;20108;-79
2022/06/02 06:27:33;;;;;;;8.23;6.45;;;;;;;31.98;32.18;99791.84;4898431;29;20064;-74
2022/06/02 06:30:10;;;;;;;8.85;7.25;;;;;;;32.13;32.59;99791.31;4898533;29;20106;-75
2022/06/02 06:32:47;;;;;;;13.65;7.15;;;;;;;32.58;31.65;99796.03;4883235;29;20047;-76
2022/06/02 06:35:11;;;;;;;8.73;6.10;;;;;;;33.27;31.15;99794.75;4898555;29;20202;-76
2022/06/02 06:37:51;;;;;;;12.85;7.40;;;;;;;33.82;29.36;99783.63;4898742;29;20489;-76
2022/06/02 06:40:37;;;;;;;9.70;6.88;;;;;;;34.24;29.47;99792.13;4898896;29;20047;-75
2022/06/02 06:43:03;;;;;;;10.45;6.93;;;;;;;34.50;28.35;99781.34;4882679;29;20498;-74
2022/06/02 06:45:43;;;;;;;14.43;7.45;;;;;;;34.67;27.89;99781.19;4882600;29;20043;-74
2022/06/02 06:48:18;;;;;;;11.80;7.32;;;;;;;34.69;28.56;99781.78;4898683;29;20517;-76
2022/06/02 06:51:24;;;;;;;12.38;7.80;;;;;;;34.79;28.47;99785.50;4904616;29;20051;-76
2022/06/02 06:54:16;;;;;;;8.07;6.63;;;;;;;35.52;27.43;99788.53;4811430;29;20048;-76
2022/06/02 06:56:47;;;;;;;11.35;7.38;;;;;;;36.15;26.40;99794.91;4842888;29;20049;-77
2022/06/02 06:59:24;;;;;;;12.07;6.57;;;;;;;36.78;26.53;99790.06;4854835;29;20060;-76
2022/06/02 07:01:54;;;;;;;10.27;7.40;;;;;;;37.50;25.29;99795.25;4862198;29;20044;-77
2022/06/02 07:04:26;;;;;;;15.40;12.68;;;;;;;37.97;24.63;99794.81;4846229;29;20448;-77
2022/06/02 07:06:51;;;;;;;13.68;6.78;;;;;;;38.24;24.28;99796.38;4861501;29;20422;-75
2022/06/02 07:09:28;;;;;;;11.05;7.75;;;;;;;38.79;24.16;99811.91;4861183;29;20443;-77
2022/06/02 07:14:42;;;;;;;13.20;8.95;;;;;;;37.70;24.07;99797.19;4862489;29;20049;-77
2022/06/02 07:17:23;;;;;;;15.77;7.80;;;;;;;38.07;24.69;99805.94;4847076;29;20048;-78
2022/06/02 07:20:01;;;;;;;9.80;7.95;;;;;;;38.43;23.38;99806.56;4851482;29;20598;-78
2022/06/02 07:22:46;;;;;;;9.93;8.88;;;;;;;39.27;23.03;99812.88;4846674;29;20515;-77
2022/06/02 07:25:24;;;;;;;10.32;7.63;;;;;;;39.72;22.20;99819.94;4901335;29;20047;-79
2022/06/02 07:28:05;;;;;;;13.23;8.18;;;;;;;39.89;22.01;99820.31;4902290;29;20476;-75
2022/06/02 07:30:53;;;;;;;11.07;8.13;;;;;;;40.40;21.56;99825.25;4886407;29;20047;-77
2022/06/02 07:33:33;;;;;;;13.88;8.75;;;;;;;40.08;21.14;99823.13;4920206;28;20046;-75
2022/06/02 07:36:16;;;;;;;9.35;8.20;;;;;;;39.96;21.73;99831.09;4918319;29;20047;-78
2022/06/02 07:38:44;;;;;;;;;;;;;;;40.58;20.53;99817.97;4903181;29;20130;-75
2022/06/02 07:41:15;;;;;;;9.90;7.63;;;;;;;40.53;20.55;99823.63;4919439;28;19918;-79
2022/06/02 07:43:58;;;;;;;15.43;8.27;;;;;;;42.14;20.43;99832.22;4919129;28;20039;-77
2022/06/02 07:46:48;;;;;;;10.65;9.60;;;;;;;42.68;20.05;99812.47;4900192;29;20054;-76
2022/06/02 07:49:47;;;;;;;10.15;9.18;;;;;;;43.64;18.90;99830.81;4900400;29;20070;-77
2022/06/02 07:52:35;;;;;;;14.43;9.63;;;;;;;44.96;18.10;99835.19;4898811;28;20082;-77
2022/06/02 07:55:07;;;;;;;12.48;10.85;;;;;;;45.50;17.41;99840.06;4898617;29;20080;-76
2022/06/02 07:57:59;;;;;;;11.75;10.35;;;;;;;45.06;16.89;99829.19;4900770;29;20051;-76
2022/06/02 08:00:31;;;;;;;9.55;8.60;;;;;;;45.01;16.87;99820.94;4899887;29;20130;-76
2022/06/02 08:03:20;;;;;;;8.93;8.23;;;;;;;45.43;16.36;99816.38;4898178;29;20043;-74
2022/06/02 08:05:48;;;;;;;10.95;10.05;;;;;;;45.41;16.28;99818.69;4914478;29;20295;-76
2022/06/02 08:09:09;;;;;;;12.35;9.65;;;;;;;45.43;17.06;99820.03;4899436;29;20067;-78
2022/06/02 08:11:54;;;;;;;10.88;7.85;;;;;;;44.64;17.60;99820.47;4879077;29;20051;-79
2022/06/02 08:14:33;;;;;;;9.48;8.60;;;;;;;44.75;17.30;99816.19;4877720;29;20504;-77
2022/06/02 08:17:10;;;;;;;11.23;8.32;;;;;;;44.76;17.44;99817.84;4862686;29;20114;-80
2022/06/02 08:19:35;;;;;;;12.07;9.20;;;;;;;44.05;17.61;99820.03;4876509;29;20067;-75
2022/06/02 08:22:06;;;;;;;9.25;8.48;;;;;;;44.34;17.94;99815.81;4878463;29;20048;-75
2022/06/02 08:24:40;;;;;;;9.75;8.82;;;;;;;44.85;17.28;99817.81;4862596;29;20047;-79
2022/06/02 08:27:43;;;;;;;10.00;9.05;;;;;;;44.84;16.80;99819.81;4878405;29;20050;-76
2022/06/02 08:30:20;;;;;;;8.95;8.15;;;;;;;43.29;18.23;99816.56;4806056;29;20056;-77
2022/06/02 08:32:50;;;;;;;9.85;8.98;;;;;;;43.67;18.10;99804.88;4823140;29;20088;-76
2022/06/02 08:35:19;;;;;;;9.63;8.82;;;;;;;44.54;18.07;99811.53;4808038;29;20465;-78
2022/06/02 08:38:10;;;;;;;9.93;9.00;;;;;;;46.22;17.55;99822.16;4824664;29;20640;-77
2022/06/02 08:41:01;;;;;;;12.05;9.38;;;;;;;47.04;16.05;99818.88;4808179;29;20076;-75
2022/06/02 08:43:57;;;;;;;11.98;10.98;;;;;;;46.75;15.15;99814.13;4809898;29;20045;-75
2022/06/02 08:46:40;;;;;;;10.88;9.77;;;;;;;45.51;16.50;99818.38;4841487;29;20060;-75
2022/06/02 08:49:11;;;;;;;11.35;10.25;;;;;;;45.28;17.10;99823.38;4809258;29;20049;-77
2022/06/02 08:52:11;;;;;;;10.88;10.00;;;;;;;44.96;17.26;99821.13;4840358;29;20412;-76
2022/06/02 08:55:06;;;;;;;10.57;9.75;;;;;;;44.59;16.94;99820.63;4856628;29;20184;-75
2022/06/02 08:57:38;;;;;;;13.07;10.10;;;;;;;44.32;17.58;99810.50;4843997;29;20139;-76
2022/06/02 09:00:18;;;;;;;12.10;11.10;;;;;;;44.99;16.96;99815.66;4860904;29;20067;-76
2022/06/02 09:03:22;;;;;;;11.02;10.23;;;;;;;44.57;17.00;99811.72;4828693;29;20041;-79
2022/06/02 09:06:15;;;;;;;10.73;9.80;;;;;;;45.21;17.04;99812.66;4879721;29;20166;-75
2022/06/02 09:08:50;;;;;;;9.63;9.00;;;;;;;46.08;16.32;99803.81;4900862;29;20051;-76
2022/06/02 09:11:29;;;;;;;9.93;9.23;;;;;;;47.04;15.42;99811.22;4917416;29;20489;-76
2022/06/02 09:14:13;;;;;;;10.82;9.80;;;;;;;46.14;15.94;99803.31;4918280;28;20055;-76
2022/06/02 09:16:58;;;;;;;11.13;10.20;;;;;;;44.86;16.87;99799.78;4916713;29;20047;-77
2022/06/02 09:19:44;;;;;;;11.27;10.27;;;;;;;44.22;18.21;99793.13;4917840;28;20525;-77
2022/06/02 09:22:33;;;;;;;11.00;10.20;;;;;;;44.05;18.06;99783.50;4901048;29;20101;-78
2022/06/02 09:24:58;;;;;;;10.23;9.43;;;;;;;43.84;18.44;99792.84;4919200;28;20487;-78
2022/06/02 09:28:01;;;;;;;10.20;9.20;;;;;;;43.39;18.57;99784.56;4923128;28;20441;-75
2022/06/02 09:30:37;;;;;;;9.02;8.13;;;;;;;43.13;18.97;99781.59;4905818;29;20530;-77
2022/06/02 09:33:53;;;;;;;8.73;7.85;;;;;;;42.17;19.30;99775.56;4921544;29;20381;-76
2022/06/02 09:36:45;;;;;;;7.93;7.20;;;;;;;40.98;20.87;99771.75;4919121;29;20066;-77
2022/06/02 09:39:38;;;;;;;7.43;6.72;;;;;;;40.57;21.13;99768.78;4919352;29;20118;-75
2022/06/02 09:42:43;;;;;;;8.17;7.23;;;;;;;41.17;21.20;99768.94;4920821;29;20083;-76
2022/06/02 09:45:33;;;;;;;8.43;7.72;;;;;;;42.60;20.03;99768.38;4882315;29;20048;-78
2022/06/02 09:48:18;;;;;;;9.02;8.32;;;;;;;43.89;18.17;99767.44;4866428;29;20181;-76
2022/06/02 09:50:49;;;;;;;9.88;8.95;;;;;;;43.43;18.10;99769.59;4883313;29;20104;-75
2022/06/02 09:53:21;;;;;;;9.38;8.68;;;;;;;43.59;18.14;99757.91;4870896;29;20055;-75
2022/06/02 09:56:27;;;;;;;9.43;8.52;;;;;;;45.52;17.18;99761.69;4870086;29;20051;-76
2022/06/02 09:59:17;;;;;;;12.40;11.38;;;;;;;47.07;15.22;99787.91;4851421;29;20071;-75
2022/06/02 10:01:44;;;;;;;15.13;14.02;;;;;;;48.26;14.55;99752.78;4881134;29;20047;-75
2022/06/02 10:04:27;;;;;;;15.73;14.55;;;;;;;48.91;13.62;99780.94;4882872;29;20048;-74
2022/06/02 10:07:04;;;;;;;17.42;15.90;;;;;;;49.73;13.47;99766.97;4880654;29;20052;-77
2022/06/02 10:09:41;;;;;;;18.27;17.02;;;;;;;50.16;13.12;99757.44;4865370;29;20155;-77
2022/06/02 10:12:55;;;;;;;16.42;15.30;;;;;;;49.18;13.73;99746.13;4880661;29;20043;-74
2022/06/02 10:15:34;;;;;;;14.18;12.90;;;;;;;47.56;14.38;99728.69;4859610;29;20423;-76
2022/06/02 10:18:13;;;;;;;15.90;14.88;;;;;;;47.69;14.71;99739.63;4866349;29;20056;-79
2022/06/02 10:20:44;;;;;;;15.18;13.88;;;;;;;48.28;14.02;99741.94;4872331;28;20050;-79
2022/06/02 10:23:37;;;;;;;14.25;13.15;;;;;;;47.62;14.06;99736.59;4919468;29;20074;-79
2022/06/02 10:26:14;;;;;;;12.80;11.70;;;;;;;45.89;15.51;99740.31;4911427;29;20526;-78
2022/06/02 10:29:03;;;;;;;14.63;13.48;;;;;;;45.60;15.39;99747.94;4919606;29;20039;-78
2022/06/02 10:31:39;;;;;;;10.45;9.50;;;;;;;41.39;19.02;99718.69;4919165;29;20090;-79
2022/06/02 10:34:23;;;;;;;12.57;8.32;;;;;;;38.39;22.40;99712.69;4900549;29;20043;-75
2022/06/02 10:37:03;;;;;;;8.07;7.22;;;;;;;36.72;24.00;99716.97;4918928;28;20069;-77
2022/06/02 10:39:49;;;;;;;7.88;7.13;;;;;;;34.49;27.73;99711.28;4919662;28;20125;-77
2022/06/02 10:42:24;;;;;;;7.70;6.15;;;;;;;33.93;28.64;99704.38;4919993;29;20047;-76
2022/06/02 10:45:08;;;;;;;9.38;6.72;;;;;;;33.32;30.02;99698.06;4934636;28;20406;-77
2022/06/02 10:47:46;;;;;;;6.18;5.57;;;;;;;33.26;29.83;99703.81;4920395;28;20055;-77
2022/06/02 10:50:25;;;;;;;8.45;6.38;;;;;;;32.53;31.40;99699.34;4920732;28;20050;-77
2022/06/02 10:53:35;;;;;;;12.02;6.25;;;;;;;32.17;31.27;99703.41;4921188;28;20050;-78
2022/06/02 10:56:29;;;;;;;8.07;6.32;;;;;;;32.02;31.23;99704.78;4887308;29;20067;-79
2022/06/02 10:59:38;;;;;;;11.05;6.07;;;;;;;31.82;31.53;99706.34;4902160;29;20044;-76
2022/06/02 11:02:15;;;;;;;9.18;5.97;;;;;;;30.69;34.64;99699.44;4881166;29;20048;-75
2022/06/02 11:05:17;;;;;;;8.80;5.95;;;;;;;30.56;33.36;99697.75;4894725;29;20044;-72
2022/06/02 11:08:18;;;;;;;7.80;5.65;;;;;;;29.87;34.92;99690.13;4898106;29;20074;-74
2022/06/02 11:11:18;;;;;;;8.70;5.68;;;;;;;29.45;35.96;99695.56;4881692;29;20458;-75
2022/06/02 11:14:02;;;;;;;8.52;5.55;;;;;;;29.06;38.06;99680.34;4897227;29;20051;-75
2022/06/02 11:16:55;;;;;;;8.67;5.80;;;;;;;29.30;36.23;99695.06;4898266;29;20055;-72
2022/06/02 11:19:26;;;;;;;8.37;5.80;;;;;;;28.81;36.94;99685.88;4862385;29;20309;-75
2022/06/02 11:22:23;;;;;;;7.05;5.50;;;;;;;28.58;36.91;99691.16;4861017;29;20048;-70
2022/06/02 11:25:09;;;;;;;6.97;5.53;;;;;;;28.42;37.48;99689.84;4860919;29;20123;-70
2022/06/02 11:28:06;;;;;;;8.00;5.85;;;;;;;28.32;37.62;99692.25;4863618;29;20526;-70
2022/06/02 11:30:49;;;;;;;9.40;5.78;;;;;;;28.42;38.03;99694.47;4878561;29;20032;-70
2022/06/02 11:33:38;;;;;;;10.85;5.22;;;;;;;28.38;37.96;99702.28;4862415;29;20471;-69
2022/06/02 11:36:25;;;;;;;8.20;5.57;;;;;;;28.45;37.86;99700.31;4879373;29;20143;-69
2022/06/02 11:39:04;;;;;;;10.15;6.10;;;;;;;28.19;37.91;99697.81;4879547;29;20519;-69
2022/06/02 11:41:45;;;;;;;7.90;5.47;;;;;;;27.79;39.14;99700.78;4863996;29;20051;-69
2022/06/02 11:44:14;;;;;;;6.55;5.13;;;;;;;27.69;38.97;99694.94;4863242;29;20044;-70
2022/06/02 11:47:00;;;;;;;9.23;6.15;;;;;;;27.69;39.07;99685.88;4879154;29;20553;-69
2022/06/02 11:49:50;;;;;;;10.65;5.97;;;;;;;27.60;39.46;99696.25;4878104;29;20139;-69
2022/06/02 11:52:18;;;;;;;6.68;5.57;;;;;;;27.24;40.48;99694.06;4878956;29;20103;-70
2022/06/02 11:55:09;;;;;;;8.70;6.18;;;;;;;27.34;40.04;99702.66;4865554;29;20060;-70
2022/06/02 11:57:44;;;;;;;8.90;5.75;;;;;;;27.28;41.46;99689.00;4902165;29;20044;-69
2022/06/02 12:00:47;;;;;;;7.05;5.85;;;;;;;27.53;40.27;99698.16;4883864;29;20043;-68
2022/06/02 12:03:33;;;;;;;7.85;5.60;;;;;;;27.45;40.38;99692.91;4899767;29;20076;-69
2022/06/02 12:06:35;;;;;;;6.95;5.20;;;;;;;27.62;39.98;99696.88;4899259;29;20051;-68
2022/06/02 12:09:25;;;;;;;11.55;5.85;;;;;;;27.48;40.85;99685.09;4898270;29;20408;-71
2022/06/02 12:12:13;;;;;;;10.13;6.32;;;;;;;27.11;42.50;99696.81;5154451;27;20373;-68
2022/06/02 12:15:15;;;;;;;7.40;6.03;;;;;;;27.33;41.61;99689.16;5115467;27;20393;-68
2022/06/02 12:18:06;;;;;;;10.88;5.88;;;;;;;27.49;40.74;99675.00;5115618;27;20445;-69
2022/06/02 12:20:59;;;;;;;9.43;6.00;;;;;;;27.46;41.07;99680.91;5029520;28;20086;-69
2022/06/02 12:23:36;;;;;;;12.15;7.30;;;;;;;27.44;41.17;99693.97;5023870;28;20048;-68
2022/06/02 12:26:26;;;;;;;8.20;5.65;;;;;;;27.40;40.91;99690.00;5016007;28;20049;-67
2022/06/02 12:29:01;;;;;;;8.40;6.15;;;;;;;27.26;41.27;99681.00;4951359;28;20050;-68
2022/06/02 12:31:45;;;;;;;8.63;5.85;;;;;;;26.95;41.80;99670.78;4970147;28;20493;-69
2022/06/02 12:34:18;;;;;;;7.13;5.60;;;;;;;26.94;41.50;99669.09;4970276;28;20054;-67
2022/06/02 12:37:26;;;;;;;8.75;5.60;;;;;;;26.92;41.75;99673.94;4970364;28;20045;-68
2022/06/02 12:40:01;;;;;;;11.00;8.80;;;;;;;26.79;42.07;99676.69;4969990;28;20467;-68
2022/06/02 12:42:33;;;;;;;9.63;5.95;;;;;;;26.74;42.55;99685.53;4954422;28;20050;-69
2022/06/02 12:45:19;;;;;;;10.60;6.00;;;;;;;26.71;42.42;99671.44;4954052;28;20057;-68
2022/06/02 12:48:06;;;;;;;6.95;5.40;;;;;;;26.79;42.00;99676.69;4970305;28;20167;-68
2022/06/02 12:50:54;;;;;;;11.35;5.72;;;;;;;26.79;41.80;99676.69;4969759;28;20133;-67
2022/06/02 12:53:57;;;;;;;8.00;5.85;;;;;;;26.81;41.51;99668.25;4953736;28;20108;-68